sensor_id;sensor_type;location;lat;lon;timestamp;temperature;humidity
29341;DHT22;16337;59.536;13.468;2022-07-21T00:01:02;19.90;99.90
29341;DHT22;16337;59.536;13.468;2022-07-21T00:03:27;19.90;99.90
29341;DHT22;16337;59.536;13.468;2022-07-21T00:05:53;19.90;99.90
29341;DHT22;16337;59.536;13.468;2022-07-21T00:08:19;19.90;99.90
29341;DHT22;16337;59.536;13.468;2022-07-21T00:10:45;19.90;99.90
29341;DHT22;16337;59.536;13.468;2022-07-21T00:13:11;19.80;99.90
29341;DHT22;16337;59.536;13.468;2022-07-21T00:15:37;19.70;99.90
29341;DHT22;16337;59.536;13.468;2022-07-21T00:18:03;19.70;99.90
29341;DHT22;16337;59.536;13.468;2022-07-21T00:20:29;19.80;99.90
29341;DHT22;16337;59.536;13.468;2022-07-21T00:22:56;19.80;99.90
29341;DHT22;16337;59.536;13.468;2022-07-21T00:25:22;19.70;99.90
29341;DHT22;16337;59.536;13.468;2022-07-21T00:27:48;19.70;99.90
29341;DHT22;16337;59.536;13.468;2022-07-21T00:30:14;19.70;99.90
29341;DHT22;16337;59.536;13.468;2022-07-21T00:32:40;19.70;99.90
29341;DHT22;16337;59.536;13.468;2022-07-21T00:35:07;19.70;99.90
29341;DHT22;16337;59.536;13.468;2022-07-21T00:37:33;19.70;99.90
29341;DHT22;16337;59.536;13.468;2022-07-21T00:39:59;19.60;99.90
29341;DHT22;16337;59.536;13.468;2022-07-21T00:42:27;19.60;99.90
29341;DHT22;16337;59.536;13.468;2022-07-21T00:44:53;19.60;99.90
29341;DHT22;16337;59.536;13.468;2022-07-21T00:47:27;19.50;99.90
29341;DHT22;16337;59.536;13.468;2022-07-21T00:49:54;19.40;99.90
29341;DHT22;16337;59.536;13.468;2022-07-21T00:52:20;19.40;99.90
29341;DHT22;16337;59.536;13.468;2022-07-21T00:54:47;19.40;99.90
29341;DHT22;16337;59.536;13.468;2022-07-21T00:57:13;19.30;99.90
29341;DHT22;16337;59.536;13.468;2022-07-21T00:59:40;19.30;99.90
29341;DHT22;16337;59.536;13.468;2022-07-21T01:02:06;19.40;99.90
29341;DHT22;16337;59.536;13.468;2022-07-21T01:04:32;19.40;99.90
29341;DHT22;16337;59.536;13.468;2022-07-21T01:07:00;19.40;99.90
29341;DHT22;16337;59.536;13.468;2022-07-21T01:09:26;19.40;99.90
29341;DHT22;16337;59.536;13.468;2022-07-21T01:11:52;19.40;99.90
29341;DHT22;16337;59.536;13.468;2022-07-21T01:14:18;19.30;99.90
29341;DHT22;16337;59.536;13.468;2022-07-21T01:16:44;19.30;99.90
29341;DHT22;16337;59.536;13.468;2022-07-21T01:19:10;19.30;99.90
29341;DHT22;16337;59.536;13.468;2022-07-21T01:21:41;19.30;99.90
29341;DHT22;16337;59.536;13.468;2022-07-21T01:24:07;19.30;99.90
29341;DHT22;16337;59.536;13.468;2022-07-21T01:26:49;19.30;99.90
29341;DHT22;16337;59.536;13.468;2022-07-21T01:29:16;19.30;99.90
29341;DHT22;16337;59.536;13.468;2022-07-21T01:31:44;19.20;99.90
29341;DHT22;16337;59.536;13.468;2022-07-21T01:34:10;19.30;99.90
29341;DHT22;16337;59.536;13.468;2022-07-21T01:36:36;19.30;99.90
29341;DHT22;16337;59.536;13.468;2022-07-21T01:39:04;19.30;99.90
29341;DHT22;16337;59.536;13.468;2022-07-21T01:41:48;19.30;99.90
29341;DHT22;16337;59.536;13.468;2022-07-21T01:44:14;19.20;99.90
29341;DHT22;16337;59.536;13.468;2022-07-21T01:46:45;19.20;99.90
29341;DHT22;16337;59.536;13.468;2022-07-21T01:49:12;19.20;99.90
29341;DHT22;16337;59.536;13.468;2022-07-21T01:51:38;19.20;99.90
29341;DHT22;16337;59.536;13.468;2022-07-21T01:54:05;19.10;99.90
29341;DHT22;16337;59.536;13.468;2022-07-21T01:56:33;19.00;99.90
29341;DHT22;16337;59.536;13.468;2022-07-21T01:58:59;19.00;99.90
29341;DHT22;16337;59.536;13.468;2022-07-21T02:01:26;18.90;99.90
29341;DHT22;16337;59.536;13.468;2022-07-21T02:03:53;18.90;99.90
29341;DHT22;16337;59.536;13.468;2022-07-21T02:06:20;18.90;99.90
29341;DHT22;16337;59.536;13.468;2022-07-21T02:08:45;18.90;99.90
29341;DHT22;16337;59.536;13.468;2022-07-21T02:11:12;19.00;99.90
29341;DHT22;16337;59.536;13.468;2022-07-21T02:13:38;19.00;99.90
29341;DHT22;16337;59.536;13.468;2022-07-21T02:16:04;19.10;99.90
29341;DHT22;16337;59.536;13.468;2022-07-21T02:18:31;19.10;99.90
29341;DHT22;16337;59.536;13.468;2022-07-21T02:20:57;19.10;99.90
29341;DHT22;16337;59.536;13.468;2022-07-21T02:23:23;19.10;99.90
29341;DHT22;16337;59.536;13.468;2022-07-21T02:25:50;19.20;99.90
29341;DHT22;16337;59.536;13.468;2022-07-21T02:28:21;19.20;99.90
29341;DHT22;16337;59.536;13.468;2022-07-21T02:30:47;19.20;99.90
29341;DHT22;16337;59.536;13.468;2022-07-21T02:33:13;19.20;99.90
29341;DHT22;16337;59.536;13.468;2022-07-21T02:35:40;19.10;99.90
29341;DHT22;16337;59.536;13.468;2022-07-21T02:38:06;19.10;99.90
29341;DHT22;16337;59.536;13.468;2022-07-21T02:40:32;19.10;99.90
29341;DHT22;16337;59.536;13.468;2022-07-21T02:42:58;19.10;99.90
29341;DHT22;16337;59.536;13.468;2022-07-21T02:45:24;19.00;99.90
29341;DHT22;16337;59.536;13.468;2022-07-21T02:47:50;19.00;99.90
29341;DHT22;16337;59.536;13.468;2022-07-21T02:50:17;18.90;99.90
29341;DHT22;16337;59.536;13.468;2022-07-21T02:52:44;18.90;99.90
29341;DHT22;16337;59.536;13.468;2022-07-21T02:55:10;18.90;99.90
29341;DHT22;16337;59.536;13.468;2022-07-21T02:57:36;19.00;99.90
29341;DHT22;16337;59.536;13.468;2022-07-21T03:00:04;19.00;99.90
29341;DHT22;16337;59.536;13.468;2022-07-21T03:02:30;19.00;99.90
29341;DHT22;16337;59.536;13.468;2022-07-21T03:04:56;19.00;99.90
29341;DHT22;16337;59.536;13.468;2022-07-21T03:07:21;19.10;99.90
29341;DHT22;16337;59.536;13.468;2022-07-21T03:09:47;19.10;99.90
29341;DHT22;16337;59.536;13.468;2022-07-21T03:12:13;19.10;99.90
29341;DHT22;16337;59.536;13.468;2022-07-21T03:14:38;19.20;99.90
29341;DHT22;16337;59.536;13.468;2022-07-21T03:17:04;19.10;99.90
29341;DHT22;16337;59.536;13.468;2022-07-21T03:19:30;19.10;99.90
29341;DHT22;16337;59.536;13.468;2022-07-21T03:21:56;19.20;99.90
29341;DHT22;16337;59.536;13.468;2022-07-21T03:24:22;19.20;99.90
29341;DHT22;16337;59.536;13.468;2022-07-21T03:26:47;19.20;99.90
29341;DHT22;16337;59.536;13.468;2022-07-21T03:29:13;19.20;99.90
29341;DHT22;16337;59.536;13.468;2022-07-21T03:31:39;19.20;99.90
29341;DHT22;16337;59.536;13.468;2022-07-21T03:34:05;19.30;99.90
29341;DHT22;16337;59.536;13.468;2022-07-21T03:36:30;19.30;99.90
29341;DHT22;16337;59.536;13.468;2022-07-21T03:38:56;19.40;99.90
29341;DHT22;16337;59.536;13.468;2022-07-21T03:41:22;19.40;99.90
29341;DHT22;16337;59.536;13.468;2022-07-21T03:43:47;19.50;99.90
29341;DHT22;16337;59.536;13.468;2022-07-21T03:46:13;19.50;99.90
29341;DHT22;16337;59.536;13.468;2022-07-21T03:48:39;19.50;99.90
29341;DHT22;16337;59.536;13.468;2022-07-21T03:51:05;19.60;99.90
29341;DHT22;16337;59.536;13.468;2022-07-21T03:53:31;19.70;99.90
29341;DHT22;16337;59.536;13.468;2022-07-21T03:55:57;19.80;99.90
29341;DHT22;16337;59.536;13.468;2022-07-21T03:58:23;19.90;99.90
29341;DHT22;16337;59.536;13.468;2022-07-21T04:00:48;20.00;99.90
29341;DHT22;16337;59.536;13.468;2022-07-21T04:03:14;20.10;99.90
29341;DHT22;16337;59.536;13.468;2022-07-21T04:05:41;20.20;99.90
29341;DHT22;16337;59.536;13.468;2022-07-21T04:08:09;20.30;99.90
29341;DHT22;16337;59.536;13.468;2022-07-21T04:10:36;20.30;99.90
29341;DHT22;16337;59.536;13.468;2022-07-21T04:13:08;20.50;99.90
29341;DHT22;16337;59.536;13.468;2022-07-21T04:15:34;20.50;99.90
29341;DHT22;16337;59.536;13.468;2022-07-21T04:18:00;20.50;99.90
29341;DHT22;16337;59.536;13.468;2022-07-21T04:20:26;20.50;99.90
29341;DHT22;16337;59.536;13.468;2022-07-21T04:22:52;20.50;99.90
29341;DHT22;16337;59.536;13.468;2022-07-21T04:25:18;20.60;99.90
29341;DHT22;16337;59.536;13.468;2022-07-21T04:27:46;20.70;99.90
29341;DHT22;16337;59.536;13.468;2022-07-21T04:30:15;20.80;99.90
29341;DHT22;16337;59.536;13.468;2022-07-21T04:32:41;21.00;99.90
29341;DHT22;16337;59.536;13.468;2022-07-21T04:35:07;21.00;99.90
29341;DHT22;16337;59.536;13.468;2022-07-21T04:37:33;21.20;99.90
29341;DHT22;16337;59.536;13.468;2022-07-21T04:39:59;21.30;99.90
29341;DHT22;16337;59.536;13.468;2022-07-21T04:42:25;21.40;99.90
29341;DHT22;16337;59.536;13.468;2022-07-21T04:44:51;21.60;99.90
29341;DHT22;16337;59.536;13.468;2022-07-21T04:47:16;21.70;99.90
29341;DHT22;16337;59.536;13.468;2022-07-21T04:49:42;21.90;99.90
29341;DHT22;16337;59.536;13.468;2022-07-21T04:52:08;22.00;99.90
29341;DHT22;16337;59.536;13.468;2022-07-21T04:54:34;22.00;99.90
29341;DHT22;16337;59.536;13.468;2022-07-21T04:57:00;22.00;99.90
29341;DHT22;16337;59.536;13.468;2022-07-21T04:59:29;22.00;99.90
29341;DHT22;16337;59.536;13.468;2022-07-21T05:01:55;22.10;99.90
29341;DHT22;16337;59.536;13.468;2022-07-21T05:04:21;22.20;99.90
29341;DHT22;16337;59.536;13.468;2022-07-21T05:06:47;22.20;99.90
29341;DHT22;16337;59.536;13.468;2022-07-21T05:09:13;22.30;99.90
29341;DHT22;16337;59.536;13.468;2022-07-21T05:11:39;22.30;99.90
29341;DHT22;16337;59.536;13.468;2022-07-21T05:14:05;22.40;99.90
29341;DHT22;16337;59.536;13.468;2022-07-21T05:16:31;22.40;99.90
29341;DHT22;16337;59.536;13.468;2022-07-21T05:18:57;22.60;99.90
29341;DHT22;16337;59.536;13.468;2022-07-21T05:21:23;22.70;99.90
29341;DHT22;16337;59.536;13.468;2022-07-21T05:23:48;22.90;99.90
29341;DHT22;16337;59.536;13.468;2022-07-21T05:26:14;23.20;99.90
29341;DHT22;16337;59.536;13.468;2022-07-21T05:28:40;23.30;99.90
29341;DHT22;16337;59.536;13.468;2022-07-21T05:31:07;23.40;99.90
29341;DHT22;16337;59.536;13.468;2022-07-21T05:33:33;23.40;99.90
29341;DHT22;16337;59.536;13.468;2022-07-21T05:35:59;23.40;99.90
29341;DHT22;16337;59.536;13.468;2022-07-21T05:38:25;23.40;99.90
29341;DHT22;16337;59.536;13.468;2022-07-21T05:40:50;23.30;99.90
29341;DHT22;16337;59.536;13.468;2022-07-21T05:43:16;23.20;99.90
29341;DHT22;16337;59.536;13.468;2022-07-21T05:45:42;23.20;99.90
29341;DHT22;16337;59.536;13.468;2022-07-21T05:48:07;23.30;99.90
29341;DHT22;16337;59.536;13.468;2022-07-21T05:50:34;23.30;99.90
29341;DHT22;16337;59.536;13.468;2022-07-21T05:52:59;23.30;99.90
29341;DHT22;16337;59.536;13.468;2022-07-21T05:55:25;23.30;99.90
29341;DHT22;16337;59.536;13.468;2022-07-21T05:57:51;23.40;99.90
29341;DHT22;16337;59.536;13.468;2022-07-21T06:00:17;23.50;99.90
29341;DHT22;16337;59.536;13.468;2022-07-21T06:02:46;23.50;99.90
29341;DHT22;16337;59.536;13.468;2022-07-21T06:05:13;23.60;99.90
29341;DHT22;16337;59.536;13.468;2022-07-21T06:07:39;23.60;99.90
29341;DHT22;16337;59.536;13.468;2022-07-21T06:10:06;23.60;99.90
29341;DHT22;16337;59.536;13.468;2022-07-21T06:12:32;23.70;99.90
29341;DHT22;16337;59.536;13.468;2022-07-21T06:14:58;23.90;99.90
29341;DHT22;16337;59.536;13.468;2022-07-21T06:17:24;24.00;99.90
29341;DHT22;16337;59.536;13.468;2022-07-21T06:19:49;24.20;99.90
29341;DHT22;16337;59.536;13.468;2022-07-21T06:22:16;24.30;99.90
29341;DHT22;16337;59.536;13.468;2022-07-21T06:24:42;24.40;99.90
29341;DHT22;16337;59.536;13.468;2022-07-21T06:27:07;24.40;99.90
29341;DHT22;16337;59.536;13.468;2022-07-21T06:29:34;24.30;99.90
29341;DHT22;16337;59.536;13.468;2022-07-21T06:32:00;24.30;99.90
29341;DHT22;16337;59.536;13.468;2022-07-21T06:34:25;24.30;99.90
29341;DHT22;16337;59.536;13.468;2022-07-21T06:36:51;24.30;99.90
29341;DHT22;16337;59.536;13.468;2022-07-21T06:39:17;24.50;99.90
29341;DHT22;16337;59.536;13.468;2022-07-21T06:41:42;24.70;99.90
29341;DHT22;16337;59.536;13.468;2022-07-21T06:44:08;24.80;99.90
29341;DHT22;16337;59.536;13.468;2022-07-21T06:46:34;25.10;99.90
29341;DHT22;16337;59.536;13.468;2022-07-21T06:49:01;25.20;99.90
29341;DHT22;16337;59.536;13.468;2022-07-21T06:51:27;25.20;99.90
29341;DHT22;16337;59.536;13.468;2022-07-21T06:53:53;25.30;99.90
29341;DHT22;16337;59.536;13.468;2022-07-21T06:56:19;25.30;99.90
29341;DHT22;16337;59.536;13.468;2022-07-21T06:58:45;25.30;99.90
29341;DHT22;16337;59.536;13.468;2022-07-21T07:01:11;25.30;99.90
29341;DHT22;16337;59.536;13.468;2022-07-21T07:03:37;25.10;99.90
29341;DHT22;16337;59.536;13.468;2022-07-21T07:06:04;25.00;99.90
29341;DHT22;16337;59.536;13.468;2022-07-21T07:08:30;25.20;99.90
29341;DHT22;16337;59.536;13.468;2022-07-21T07:10:56;25.40;99.90
29341;DHT22;16337;59.536;13.468;2022-07-21T07:13:22;25.80;99.90
29341;DHT22;16337;59.536;13.468;2022-07-21T07:15:48;25.60;99.90
29341;DHT22;16337;59.536;13.468;2022-07-21T07:18:13;25.80;99.90
29341;DHT22;16337;59.536;13.468;2022-07-21T07:20:39;26.00;99.90
29341;DHT22;16337;59.536;13.468;2022-07-21T07:23:05;25.90;99.90
29341;DHT22;16337;59.536;13.468;2022-07-21T07:25:31;26.00;99.90
29341;DHT22;16337;59.536;13.468;2022-07-21T07:27:56;26.10;99.90
29341;DHT22;16337;59.536;13.468;2022-07-21T07:30:23;26.40;99.90
29341;DHT22;16337;59.536;13.468;2022-07-21T07:32:49;26.50;99.90
29341;DHT22;16337;59.536;13.468;2022-07-21T07:35:15;26.80;99.90
29341;DHT22;16337;59.536;13.468;2022-07-21T07:37:43;26.90;99.90
29341;DHT22;16337;59.536;13.468;2022-07-21T07:40:12;27.00;99.90
29341;DHT22;16337;59.536;13.468;2022-07-21T07:42:38;26.90;99.90
29341;DHT22;16337;59.536;13.468;2022-07-21T07:45:05;26.90;99.90
29341;DHT22;16337;59.536;13.468;2022-07-21T07:47:32;26.70;99.90
29341;DHT22;16337;59.536;13.468;2022-07-21T07:49:58;26.60;99.90
29341;DHT22;16337;59.536;13.468;2022-07-21T07:52:24;26.70;99.90
29341;DHT22;16337;59.536;13.468;2022-07-21T07:54:49;26.70;99.90
29341;DHT22;16337;59.536;13.468;2022-07-21T07:57:15;26.70;99.90
29341;DHT22;16337;59.536;13.468;2022-07-21T07:59:41;26.70;99.90
29341;DHT22;16337;59.536;13.468;2022-07-21T08:02:07;26.50;99.90
29341;DHT22;16337;59.536;13.468;2022-07-21T08:04:32;26.60;99.90
29341;DHT22;16337;59.536;13.468;2022-07-21T08:06:58;26.70;99.90
29341;DHT22;16337;59.536;13.468;2022-07-21T08:09:24;26.80;99.90
29341;DHT22;16337;59.536;13.468;2022-07-21T08:11:49;27.10;99.90
29341;DHT22;16337;59.536;13.468;2022-07-21T08:14:16;27.60;99.90
29341;DHT22;16337;59.536;13.468;2022-07-21T08:16:42;27.80;99.90
29341;DHT22;16337;59.536;13.468;2022-07-21T08:19:08;28.00;99.90
29341;DHT22;16337;59.536;13.468;2022-07-21T08:21:34;27.90;99.90
29341;DHT22;16337;59.536;13.468;2022-07-21T08:24:01;28.20;99.90
29341;DHT22;16337;59.536;13.468;2022-07-21T08:26:27;28.10;99.90
29341;DHT22;16337;59.536;13.468;2022-07-21T08:28:54;28.20;99.90
29341;DHT22;16337;59.536;13.468;2022-07-21T08:31:19;28.40;99.90
29341;DHT22;16337;59.536;13.468;2022-07-21T08:33:45;28.50;99.90
29341;DHT22;16337;59.536;13.468;2022-07-21T08:36:11;28.60;99.90
29341;DHT22;16337;59.536;13.468;2022-07-21T08:38:37;28.60;99.90
29341;DHT22;16337;59.536;13.468;2022-07-21T08:41:03;28.50;99.90
29341;DHT22;16337;59.536;13.468;2022-07-21T08:43:30;28.70;99.90
29341;DHT22;16337;59.536;13.468;2022-07-21T08:45:56;28.70;99.90
29341;DHT22;16337;59.536;13.468;2022-07-21T08:48:25;28.70;99.90
29341;DHT22;16337;59.536;13.468;2022-07-21T08:50:51;28.90;99.90
29341;DHT22;16337;59.536;13.468;2022-07-21T08:53:17;29.10;99.90
29341;DHT22;16337;59.536;13.468;2022-07-21T08:55:43;29.30;99.90
29341;DHT22;16337;59.536;13.468;2022-07-21T08:58:10;29.30;99.90
29341;DHT22;16337;59.536;13.468;2022-07-21T09:00:38;29.50;99.90
29341;DHT22;16337;59.536;13.468;2022-07-21T09:03:18;29.70;99.90
29341;DHT22;16337;59.536;13.468;2022-07-21T09:08:32;29.70;99.90
29341;DHT22;16337;59.536;13.468;2022-07-21T09:11:13;30.20;99.90
29341;DHT22;16337;59.536;13.468;2022-07-21T09:13:40;30.40;99.90
29341;DHT22;16337;59.536;13.468;2022-07-21T09:16:06;30.40;99.90
29341;DHT22;16337;59.536;13.468;2022-07-21T09:18:32;30.70;99.90
29341;DHT22;16337;59.536;13.468;2022-07-21T09:20:58;30.90;99.90
29341;DHT22;16337;59.536;13.468;2022-07-21T09:23:26;31.40;99.90
29341;DHT22;16337;59.536;13.468;2022-07-21T09:25:56;31.50;99.90
29341;DHT22;16337;59.536;13.468;2022-07-21T09:28:28;31.30;99.90
29341;DHT22;16337;59.536;13.468;2022-07-21T09:33:32;31.10;99.90
29341;DHT22;16337;59.536;13.468;2022-07-21T09:38:42;31.60;99.90
29341;DHT22;16337;59.536;13.468;2022-07-21T09:41:23;31.60;99.90
29341;DHT22;16337;59.536;13.468;2022-07-21T09:43:50;31.30;99.90
29341;DHT22;16337;59.536;13.468;2022-07-21T09:46:27;31.00;99.90
29341;DHT22;16337;59.536;13.468;2022-07-21T09:49:00;31.00;99.90
29341;DHT22;16337;59.536;13.468;2022-07-21T09:51:33;30.70;99.90
29341;DHT22;16337;59.536;13.468;2022-07-21T09:54:04;30.50;99.90
29341;DHT22;16337;59.536;13.468;2022-07-21T09:56:34;30.60;99.90
29341;DHT22;16337;59.536;13.468;2022-07-21T09:59:01;30.50;99.90
29341;DHT22;16337;59.536;13.468;2022-07-21T10:01:28;30.50;99.90
29341;DHT22;16337;59.536;13.468;2022-07-21T10:03:55;30.70;99.90
29341;DHT22;16337;59.536;13.468;2022-07-21T10:06:27;31.10;99.90
29341;DHT22;16337;59.536;13.468;2022-07-21T10:08:58;31.50;99.90
29341;DHT22;16337;59.536;13.468;2022-07-21T10:11:25;31.90;99.90
29341;DHT22;16337;59.536;13.468;2022-07-21T10:13:51;32.10;99.90
29341;DHT22;16337;59.536;13.468;2022-07-21T10:16:17;32.30;99.90
29341;DHT22;16337;59.536;13.468;2022-07-21T10:21:32;32.10;99.90
29341;DHT22;16337;59.536;13.468;2022-07-21T10:24:04;32.00;99.90
29341;DHT22;16337;59.536;13.468;2022-07-21T10:26:30;31.90;99.90
29341;DHT22;16337;59.536;13.468;2022-07-21T10:29:02;31.80;99.90
29341;DHT22;16337;59.536;13.468;2022-07-21T10:31:27;32.00;99.90
29341;DHT22;16337;59.536;13.468;2022-07-21T10:34:00;31.70;99.90
29341;DHT22;16337;59.536;13.468;2022-07-21T10:41:41;32.20;99.90
29341;DHT22;16337;59.536;13.468;2022-07-21T10:47:08;32.60;97.70
29341;DHT22;16337;59.536;13.468;2022-07-21T10:49:53;31.70;98.20
29341;DHT22;16337;59.536;13.468;2022-07-21T10:57:40;32.20;99.90
29341;DHT22;16337;59.536;13.468;2022-07-21T11:00:27;32.40;99.00
29341;DHT22;16337;59.536;13.468;2022-07-21T11:02:57;32.40;99.90
29341;DHT22;16337;59.536;13.468;2022-07-21T11:05:24;32.40;99.90
29341;DHT22;16337;59.536;13.468;2022-07-21T11:08:20;32.90;98.10
29341;DHT22;16337;59.536;13.468;2022-07-21T11:10:51;33.40;97.20
29341;DHT22;16337;59.536;13.468;2022-07-21T11:13:19;33.40;98.40
29341;DHT22;16337;59.536;13.468;2022-07-21T11:15:58;33.50;98.90
29341;DHT22;16337;59.536;13.468;2022-07-21T11:18:27;33.40;96.10
29341;DHT22;16337;59.536;13.468;2022-07-21T11:21:10;33.50;96.50
29341;DHT22;16337;59.536;13.468;2022-07-21T11:23:38;33.60;97.00
29341;DHT22;16337;59.536;13.468;2022-07-21T11:26:04;33.60;95.70
29341;DHT22;16337;59.536;13.468;2022-07-21T11:28:33;34.00;96.00
29341;DHT22;16337;59.536;13.468;2022-07-21T11:31:12;34.10;96.70
29341;DHT22;16337;59.536;13.468;2022-07-21T11:33:39;34.10;94.90
29341;DHT22;16337;59.536;13.468;2022-07-21T11:36:06;34.60;95.50
29341;DHT22;16337;59.536;13.468;2022-07-21T11:38:31;34.00;94.30
29341;DHT22;16337;59.536;13.468;2022-07-21T11:41:17;33.50;94.30
29341;DHT22;16337;59.536;13.468;2022-07-21T11:43:44;33.20;95.30
29341;DHT22;16337;59.536;13.468;2022-07-21T11:46:10;33.40;95.90
29341;DHT22;16337;59.536;13.468;2022-07-21T11:48:39;33.70;96.00
29341;DHT22;16337;59.536;13.468;2022-07-21T11:51:06;33.80;94.80
29341;DHT22;16337;59.536;13.468;2022-07-21T11:53:33;33.80;93.80
29341;DHT22;16337;59.536;13.468;2022-07-21T11:55:59;33.80;92.80
29341;DHT22;16337;59.536;13.468;2022-07-21T11:58:25;34.00;95.20
29341;DHT22;16337;59.536;13.468;2022-07-21T12:01:04;34.10;95.90
29341;DHT22;16337;59.536;13.468;2022-07-21T12:03:31;34.30;96.90
29341;DHT22;16337;59.536;13.468;2022-07-21T12:05:57;34.30;95.10
29341;DHT22;16337;59.536;13.468;2022-07-21T12:08:23;34.60;94.60
29341;DHT22;16337;59.536;13.468;2022-07-21T12:10:50;34.90;94.00
29341;DHT22;16337;59.536;13.468;2022-07-21T12:13:15;34.80;92.80
29341;DHT22;16337;59.536;13.468;2022-07-21T12:15:41;35.10;94.30
29341;DHT22;16337;59.536;13.468;2022-07-21T12:18:08;35.20;93.90
29341;DHT22;16337;59.536;13.468;2022-07-21T12:20:39;35.30;92.40
29341;DHT22;16337;59.536;13.468;2022-07-21T12:23:25;35.00;91.10
29341;DHT22;16337;59.536;13.468;2022-07-21T12:25:53;34.40;89.30
29341;DHT22;16337;59.536;13.468;2022-07-21T12:28:19;34.10;93.10
29341;DHT22;16337;59.536;13.468;2022-07-21T12:30:50;34.00;91.40
29341;DHT22;16337;59.536;13.468;2022-07-21T12:33:18;34.00;92.90
29341;DHT22;16337;59.536;13.468;2022-07-21T12:38:45;34.40;91.50
29341;DHT22;16337;59.536;13.468;2022-07-21T12:41:13;34.10;88.60
29341;DHT22;16337;59.536;13.468;2022-07-21T12:43:39;34.10;89.50
29341;DHT22;16337;59.536;13.468;2022-07-21T12:46:14;34.10;90.00
29341;DHT22;16337;59.536;13.468;2022-07-21T12:48:41;34.00;93.00
29341;DHT22;16337;59.536;13.468;2022-07-21T12:53:54;34.60;90.20
29341;DHT22;16337;59.536;13.468;2022-07-21T12:56:25;34.60;89.60
29341;DHT22;16337;59.536;13.468;2022-07-21T12:58:52;34.60;90.50
29341;DHT22;16337;59.536;13.468;2022-07-21T13:01:19;34.50;86.80
29341;DHT22;16337;59.536;13.468;2022-07-21T13:03:46;34.10;88.60
29341;DHT22;16337;59.536;13.468;2022-07-21T13:06:12;33.60;87.70
29341;DHT22;16337;59.536;13.468;2022-07-21T13:08:40;33.70;87.70
29341;DHT22;16337;59.536;13.468;2022-07-21T13:11:07;33.70;86.00
29341;DHT22;16337;59.536;13.468;2022-07-21T13:13:33;34.00;90.40
29341;DHT22;16337;59.536;13.468;2022-07-21T13:15:59;34.60;88.60
29341;DHT22;16337;59.536;13.468;2022-07-21T13:18:25;34.70;87.10
29341;DHT22;16337;59.536;13.468;2022-07-21T13:20:52;34.70;87.50
29341;DHT22;16337;59.536;13.468;2022-07-21T13:23:18;34.60;85.90
29341;DHT22;16337;59.536;13.468;2022-07-21T13:25:44;34.90;88.40
29341;DHT22;16337;59.536;13.468;2022-07-21T13:28:10;35.00;88.20
29341;DHT22;16337;59.536;13.468;2022-07-21T13:30:36;34.90;83.50
29341;DHT22;16337;59.536;13.468;2022-07-21T13:33:02;35.00;87.70
29341;DHT22;16337;59.536;13.468;2022-07-21T13:35:28;34.90;82.70
29341;DHT22;16337;59.536;13.468;2022-07-21T13:37:57;34.60;86.10
29341;DHT22;16337;59.536;13.468;2022-07-21T13:40:24;34.70;87.00
29341;DHT22;16337;59.536;13.468;2022-07-21T13:42:50;34.80;82.10
29341;DHT22;16337;59.536;13.468;2022-07-21T13:45:15;34.50;83.40
29341;DHT22;16337;59.536;13.468;2022-07-21T13:47:42;34.30;82.60
29341;DHT22;16337;59.536;13.468;2022-07-21T13:50:09;34.20;81.90
29341;DHT22;16337;59.536;13.468;2022-07-21T13:52:37;33.40;86.80
29341;DHT22;16337;59.536;13.468;2022-07-21T13:55:06;33.40;90.40
29341;DHT22;16337;59.536;13.468;2022-07-21T13:57:32;33.20;89.90
29341;DHT22;16337;59.536;13.468;2022-07-21T13:59:58;33.10;85.50
29341;DHT22;16337;59.536;13.468;2022-07-21T14:02:23;33.00;84.90
29341;DHT22;16337;59.536;13.468;2022-07-21T14:04:49;32.90;86.80
29341;DHT22;16337;59.536;13.468;2022-07-21T14:07:15;32.90;85.10
29341;DHT22;16337;59.536;13.468;2022-07-21T14:09:41;33.00;89.10
29341;DHT22;16337;59.536;13.468;2022-07-21T14:12:07;33.00;90.50
29341;DHT22;16337;59.536;13.468;2022-07-21T14:14:33;32.90;89.20
29341;DHT22;16337;59.536;13.468;2022-07-21T14:17:00;32.90;88.30
29341;DHT22;16337;59.536;13.468;2022-07-21T14:19:25;32.80;90.20
29341;DHT22;16337;59.536;13.468;2022-07-21T14:21:51;32.70;90.10
29341;DHT22;16337;59.536;13.468;2022-07-21T14:24:17;32.50;87.20
29341;DHT22;16337;59.536;13.468;2022-07-21T14:27:04;32.20;90.50
29341;DHT22;16337;59.536;13.468;2022-07-21T14:29:30;32.40;89.70
29341;DHT22;16337;59.536;13.468;2022-07-21T14:31:56;32.70;91.70
29341;DHT22;16337;59.536;13.468;2022-07-21T14:34:21;32.90;90.40
29341;DHT22;16337;59.536;13.468;2022-07-21T14:36:47;33.00;89.80
29341;DHT22;16337;59.536;13.468;2022-07-21T14:39:14;32.60;89.00
29341;DHT22;16337;59.536;13.468;2022-07-21T14:41:40;32.30;91.10
29341;DHT22;16337;59.536;13.468;2022-07-21T14:44:06;31.90;90.60
29341;DHT22;16337;59.536;13.468;2022-07-21T14:46:32;31.70;92.10
29341;DHT22;16337;59.536;13.468;2022-07-21T14:48:57;31.60;91.60
29341;DHT22;16337;59.536;13.468;2022-07-21T14:51:23;31.60;91.30
29341;DHT22;16337;59.536;13.468;2022-07-21T14:53:49;31.50;92.10
29341;DHT22;16337;59.536;13.468;2022-07-21T14:56:15;31.70;92.20
29341;DHT22;16337;59.536;13.468;2022-07-21T14:58:40;32.10;93.40
29341;DHT22;16337;59.536;13.468;2022-07-21T15:01:06;31.90;93.60
29341;DHT22;16337;59.536;13.468;2022-07-21T15:03:32;31.80;91.00
29341;DHT22;16337;59.536;13.468;2022-07-21T15:05:58;31.60;91.60
29341;DHT22;16337;59.536;13.468;2022-07-21T15:08:23;31.60;91.20
29341;DHT22;16337;59.536;13.468;2022-07-21T15:10:49;31.70;91.70
29341;DHT22;16337;59.536;13.468;2022-07-21T15:13:16;31.80;92.00
29341;DHT22;16337;59.536;13.468;2022-07-21T15:15:41;31.70;91.80
29341;DHT22;16337;59.536;13.468;2022-07-21T15:18:09;31.60;91.50
29341;DHT22;16337;59.536;13.468;2022-07-21T15:20:38;31.70;91.90
29341;DHT22;16337;59.536;13.468;2022-07-21T15:23:04;31.80;91.90
29341;DHT22;16337;59.536;13.468;2022-07-21T15:25:29;31.80;91.40
29341;DHT22;16337;59.536;13.468;2022-07-21T15:27:55;32.20;93.30
29341;DHT22;16337;59.536;13.468;2022-07-21T15:30:21;32.40;92.30
29341;DHT22;16337;59.536;13.468;2022-07-21T15:32:47;32.50;93.10
29341;DHT22;16337;59.536;13.468;2022-07-21T15:35:12;32.60;91.40
29341;DHT22;16337;59.536;13.468;2022-07-21T15:37:38;32.40;90.70
29341;DHT22;16337;59.536;13.468;2022-07-21T15:40:06;32.30;92.10
29341;DHT22;16337;59.536;13.468;2022-07-21T15:42:32;32.00;93.30
29341;DHT22;16337;59.536;13.468;2022-07-21T15:45:01;31.70;94.20